sensor_id;sensor_type;location;lat;lon;timestamp;P1;durP1;ratioP1;P2;durP2;ratioP2
8626;SDS011;4351;51.422;6.794;2022-10-22T00:01:02;10.40;;;2.67;;
8626;SDS011;4351;51.422;6.794;2022-10-22T00:03:31;7.80;;;2.80;;
8626;SDS011;4351;51.422;6.794;2022-10-22T00:05:59;5.63;;;2.87;;
8626;SDS011;4351;51.422;6.794;2022-10-22T00:08:27;4.23;;;2.87;;
8626;SDS011;4351;51.422;6.794;2022-10-22T00:10:55;8.60;;;3.07;;
8626;SDS011;4351;51.422;6.794;2022-10-22T00:13:25;4.23;;;2.90;;
8626;SDS011;4351;51.422;6.794;2022-10-22T00:15:53;7.97;;;2.90;;
8626;SDS011;4351;51.422;6.794;2022-10-22T00:18:21;5.87;;;2.60;;
8626;SDS011;4351;51.422;6.794;2022-10-22T00:20:49;5.97;;;3.13;;
8626;SDS011;4351;51.422;6.794;2022-10-22T00:23:17;7.13;;;2.80;;
8626;SDS011;4351;51.422;6.794;2022-10-22T00:25:45;6.30;;;3.10;;
8626;SDS011;4351;51.422;6.794;2022-10-22T00:28:14;6.20;;;3.37;;
8626;SDS011;4351;51.422;6.794;2022-10-22T00:30:43;8.90;;;3.73;;
8626;SDS011;4351;51.422;6.794;2022-10-22T00:33:11;10.37;;;4.00;;
8626;SDS011;4351;51.422;6.794;2022-10-22T00:35:39;9.47;;;3.60;;
8626;SDS011;4351;51.422;6.794;2022-10-22T00:38:07;7.70;;;3.73;;
8626;SDS011;4351;51.422;6.794;2022-10-22T00:40:35;8.50;;;3.30;;
8626;SDS011;4351;51.422;6.794;2022-10-22T00:43:03;6.77;;;3.40;;
8626;SDS011;4351;51.422;6.794;2022-10-22T00:45:31;7.07;;;3.33;;
8626;SDS011;4351;51.422;6.794;2022-10-22T00:48:02;5.37;;;2.70;;
8626;SDS011;4351;51.422;6.794;2022-10-22T00:50:32;8.07;;;3.33;;
8626;SDS011;4351;51.422;6.794;2022-10-22T00:53:02;9.90;;;3.30;;
8626;SDS011;4351;51.422;6.794;2022-10-22T00:55:33;7.13;;;3.40;;
8626;SDS011;4351;51.422;6.794;2022-10-22T00:58:01;5.97;;;3.17;;
8626;SDS011;4351;51.422;6.794;2022-10-22T01:00:30;9.20;;;3.10;;
8626;SDS011;4351;51.422;6.794;2022-10-22T01:02:58;5.47;;;3.10;;
8626;SDS011;4351;51.422;6.794;2022-10-22T01:05:28;7.17;;;2.80;;
8626;SDS011;4351;51.422;6.794;2022-10-22T01:07:59;7.20;;;2.93;;
8626;SDS011;4351;51.422;6.794;2022-10-22T01:10:36;8.30;;;3.07;;
8626;SDS011;4351;51.422;6.794;2022-10-22T01:13:16;9.07;;;3.23;;
8626;SDS011;4351;51.422;6.794;2022-10-22T01:15:54;7.87;;;3.10;;
8626;SDS011;4351;51.422;6.794;2022-10-22T01:18:29;9.23;;;3.17;;
8626;SDS011;4351;51.422;6.794;2022-10-22T01:21:09;8.57;;;3.20;;
8626;SDS011;4351;51.422;6.794;2022-10-22T01:27:04;5.93;;;2.83;;
8626;SDS011;4351;51.422;6.794;2022-10-22T01:29:43;6.37;;;2.73;;
8626;SDS011;4351;51.422;6.794;2022-10-22T01:32:15;5.37;;;3.20;;
8626;SDS011;4351;51.422;6.794;2022-10-22T01:34:52;8.57;;;3.20;;
8626;SDS011;4351;51.422;6.794;2022-10-22T01:37:24;7.07;;;3.40;;
8626;SDS011;4351;51.422;6.794;2022-10-22T01:39:55;8.97;;;3.80;;
8626;SDS011;4351;51.422;6.794;2022-10-22T01:42:25;7.73;;;3.60;;
8626;SDS011;4351;51.422;6.794;2022-10-22T01:44:54;6.57;;;3.33;;
8626;SDS011;4351;51.422;6.794;2022-10-22T01:47:27;10.53;;;3.73;;
8626;SDS011;4351;51.422;6.794;2022-10-22T01:53:06;9.03;;;3.40;;
8626;SDS011;4351;51.422;6.794;2022-10-22T01:55:48;9.30;;;3.70;;
8626;SDS011;4351;51.422;6.794;2022-10-22T01:58:26;6.07;;;2.70;;
8626;SDS011;4351;51.422;6.794;2022-10-22T02:01:06;6.97;;;3.20;;
8626;SDS011;4351;51.422;6.794;2022-10-22T02:03:41;7.50;;;3.10;;
8626;SDS011;4351;51.422;6.794;2022-10-22T02:06:16;8.33;;;3.57;;
8626;SDS011;4351;51.422;6.794;2022-10-22T02:08:46;8.90;;;3.50;;
8626;SDS011;4351;51.422;6.794;2022-10-22T02:11:16;11.40;;;3.97;;
8626;SDS011;4351;51.422;6.794;2022-10-22T02:13:45;6.93;;;3.20;;
8626;SDS011;4351;51.422;6.794;2022-10-22T02:16:17;10.07;;;3.63;;
8626;SDS011;4351;51.422;6.794;2022-10-22T02:18:49;9.20;;;3.53;;
8626;SDS011;4351;51.422;6.794;2022-10-22T02:21:21;9.80;;;3.70;;
8626;SDS011;4351;51.422;6.794;2022-10-22T02:23:49;10.53;;;4.00;;
8626;SDS011;4351;51.422;6.794;2022-10-22T02:26:18;7.97;;;3.17;;
8626;SDS011;4351;51.422;6.794;2022-10-22T02:28:52;11.77;;;4.20;;
8626;SDS011;4351;51.422;6.794;2022-10-22T02:31:27;7.90;;;4.10;;
8626;SDS011;4351;51.422;6.794;2022-10-22T02:33:59;5.80;;;3.33;;
8626;SDS011;4351;51.422;6.794;2022-10-22T02:36:33;8.83;;;3.43;;
8626;SDS011;4351;51.422;6.794;2022-10-22T02:39:01;6.27;;;3.47;;
8626;SDS011;4351;51.422;6.794;2022-10-22T02:41:30;9.37;;;3.63;;
8626;SDS011;4351;51.422;6.794;2022-10-22T02:43:59;7.07;;;3.83;;
8626;SDS011;4351;51.422;6.794;2022-10-22T02:46:29;6.20;;;3.73;;
8626;SDS011;4351;51.422;6.794;2022-10-22T02:48:57;9.47;;;4.10;;
8626;SDS011;4351;51.422;6.794;2022-10-22T02:51:25;9.83;;;3.70;;
8626;SDS011;4351;51.422;6.794;2022-10-22T02:53:53;5.23;;;3.53;;
8626;SDS011;4351;51.422;6.794;2022-10-22T02:56:21;7.87;;;3.63;;
8626;SDS011;4351;51.422;6.794;2022-10-22T02:58:49;6.73;;;3.40;;
8626;SDS011;4351;51.422;6.794;2022-10-22T03:01:17;7.30;;;3.63;;
8626;SDS011;4351;51.422;6.794;2022-10-22T03:03:46;6.73;;;3.63;;
8626;SDS011;4351;51.422;6.794;2022-10-22T03:06:14;5.30;;;3.70;;
8626;SDS011;4351;51.422;6.794;2022-10-22T03:08:43;8.23;;;3.80;;
8626;SDS011;4351;51.422;6.794;2022-10-22T03:11:11;8.67;;;3.10;;
8626;SDS011;4351;51.422;6.794;2022-10-22T03:13:39;6.50;;;3.53;;
8626;SDS011;4351;51.422;6.794;2022-10-22T03:16:07;10.00;;;4.10;;
8626;SDS011;4351;51.422;6.794;2022-10-22T03:18:35;9.20;;;3.97;;
8626;SDS011;4351;51.422;6.794;2022-10-22T03:21:05;7.17;;;3.93;;
8626;SDS011;4351;51.422;6.794;2022-10-22T03:23:37;8.27;;;3.50;;
8626;SDS011;4351;51.422;6.794;2022-10-22T03:26:06;8.83;;;4.07;;
8626;SDS011;4351;51.422;6.794;2022-10-22T03:28:36;8.47;;;3.20;;
8626;SDS011;4351;51.422;6.794;2022-10-22T03:31:06;9.30;;;3.70;;
8626;SDS011;4351;51.422;6.794;2022-10-22T03:33:34;11.60;;;3.90;;
8626;SDS011;4351;51.422;6.794;2022-10-22T03:36:02;9.97;;;3.70;;
8626;SDS011;4351;51.422;6.794;2022-10-22T03:38:32;8.47;;;4.00;;
8626;SDS011;4351;51.422;6.794;2022-10-22T03:41:01;9.50;;;3.90;;
8626;SDS011;4351;51.422;6.794;2022-10-22T03:43:29;8.03;;;4.07;;
8626;SDS011;4351;51.422;6.794;2022-10-22T03:45:57;15.13;;;4.00;;
8626;SDS011;4351;51.422;6.794;2022-10-22T03:48:25;10.73;;;4.17;;
8626;SDS011;4351;51.422;6.794;2022-10-22T03:50:53;6.00;;;3.70;;
8626;SDS011;4351;51.422;6.794;2022-10-22T03:53:21;8.00;;;3.93;;
8626;SDS011;4351;51.422;6.794;2022-10-22T03:55:50;8.07;;;3.63;;
8626;SDS011;4351;51.422;6.794;2022-10-22T03:58:18;7.90;;;4.07;;
8626;SDS011;4351;51.422;6.794;2022-10-22T04:00:45;12.27;;;4.23;;
8626;SDS011;4351;51.422;6.794;2022-10-22T04:03:13;6.87;;;4.10;;
8626;SDS011;4351;51.422;6.794;2022-10-22T04:05:41;7.87;;;4.10;;
8626;SDS011;4351;51.422;6.794;2022-10-22T04:08:09;8.40;;;4.47;;
8626;SDS011;4351;51.422;6.794;2022-10-22T04:10:37;8.67;;;4.40;;
8626;SDS011;4351;51.422;6.794;2022-10-22T04:13:07;10.20;;;4.57;;
8626;SDS011;4351;51.422;6.794;2022-10-22T04:15:34;6.87;;;4.30;;
8626;SDS011;4351;51.422;6.794;2022-10-22T04:18:02;8.03;;;4.70;;
8626;SDS011;4351;51.422;6.794;2022-10-22T04:20:30;11.80;;;5.20;;
8626;SDS011;4351;51.422;6.794;2022-10-22T04:22:58;6.20;;;3.83;;
8626;SDS011;4351;51.422;6.794;2022-10-22T04:25:26;10.00;;;4.73;;
8626;SDS011;4351;51.422;6.794;2022-10-22T04:27:54;7.17;;;4.13;;
8626;SDS011;4351;51.422;6.794;2022-10-22T04:30:24;7.13;;;4.83;;
8626;SDS011;4351;51.422;6.794;2022-10-22T04:32:52;5.23;;;4.00;;
8626;SDS011;4351;51.422;6.794;2022-10-22T04:35:20;7.70;;;4.70;;
8626;SDS011;4351;51.422;6.794;2022-10-22T04:37:48;7.90;;;4.40;;
8626;SDS011;4351;51.422;6.794;2022-10-22T04:40:15;9.30;;;4.33;;
8626;SDS011;4351;51.422;6.794;2022-10-22T04:42:43;7.63;;;4.60;;
8626;SDS011;4351;51.422;6.794;2022-10-22T04:45:11;7.80;;;4.20;;
8626;SDS011;4351;51.422;6.794;2022-10-22T04:47:42;9.03;;;4.10;;
8626;SDS011;4351;51.422;6.794;2022-10-22T04:50:10;7.93;;;4.50;;
8626;SDS011;4351;51.422;6.794;2022-10-22T04:52:38;7.77;;;3.93;;
8626;SDS011;4351;51.422;6.794;2022-10-22T04:55:06;7.93;;;4.40;;
8626;SDS011;4351;51.422;6.794;2022-10-22T04:57:35;9.87;;;4.83;;
8626;SDS011;4351;51.422;6.794;2022-10-22T05:00:03;10.90;;;4.40;;
8626;SDS011;4351;51.422;6.794;2022-10-22T05:02:32;11.33;;;4.80;;
8626;SDS011;4351;51.422;6.794;2022-10-22T05:05:02;8.77;;;4.30;;
8626;SDS011;4351;51.422;6.794;2022-10-22T05:07:30;6.60;;;4.27;;
8626;SDS011;4351;51.422;6.794;2022-10-22T05:09:58;9.10;;;3.97;;
8626;SDS011;4351;51.422;6.794;2022-10-22T05:12:27;8.10;;;4.27;;
8626;SDS011;4351;51.422;6.794;2022-10-22T05:14:56;11.13;;;4.90;;
8626;SDS011;4351;51.422;6.794;2022-10-22T05:17:24;7.80;;;4.27;;
8626;SDS011;4351;51.422;6.794;2022-10-22T05:19:52;10.30;;;4.63;;
8626;SDS011;4351;51.422;6.794;2022-10-22T05:22:22;6.50;;;4.67;;
8626;SDS011;4351;51.422;6.794;2022-10-22T05:24:49;10.37;;;5.03;;
8626;SDS011;4351;51.422;6.794;2022-10-22T05:27:17;7.70;;;4.50;;
8626;SDS011;4351;51.422;6.794;2022-10-22T05:29:45;10.73;;;4.67;;
8626;SDS011;4351;51.422;6.794;2022-10-22T05:32:13;9.17;;;4.57;;
8626;SDS011;4351;51.422;6.794;2022-10-22T05:34:41;9.30;;;4.77;;
8626;SDS011;4351;51.422;6.794;2022-10-22T05:37:09;7.13;;;5.10;;
8626;SDS011;4351;51.422;6.794;2022-10-22T05:39:38;11.07;;;4.60;;
8626;SDS011;4351;51.422;6.794;2022-10-22T05:42:07;8.57;;;5.00;;
8626;SDS011;4351;51.422;6.794;2022-10-22T05:44:35;8.70;;;4.90;;
8626;SDS011;4351;51.422;6.794;2022-10-22T05:47:04;9.53;;;4.77;;
8626;SDS011;4351;51.422;6.794;2022-10-22T05:49:32;8.83;;;4.63;;
8626;SDS011;4351;51.422;6.794;2022-10-22T05:52:05;11.73;;;5.37;;
8626;SDS011;4351;51.422;6.794;2022-10-22T05:54:33;11.57;;;5.37;;
8626;SDS011;4351;51.422;6.794;2022-10-22T05:57:02;10.17;;;5.43;;
8626;SDS011;4351;51.422;6.794;2022-10-22T05:59:30;10.80;;;5.10;;
8626;SDS011;4351;51.422;6.794;2022-10-22T06:01:58;9.17;;;4.80;;
8626;SDS011;4351;51.422;6.794;2022-10-22T06:04:27;9.93;;;4.83;;
8626;SDS011;4351;51.422;6.794;2022-10-22T06:06:55;8.60;;;4.97;;
8626;SDS011;4351;51.422;6.794;2022-10-22T06:09:24;6.63;;;4.27;;
8626;SDS011;4351;51.422;6.794;2022-10-22T06:11:55;9.77;;;4.90;;
8626;SDS011;4351;51.422;6.794;2022-10-22T06:14:25;10.33;;;5.37;;
8626;SDS011;4351;51.422;6.794;2022-10-22T06:16:54;8.90;;;4.83;;
8626;SDS011;4351;51.422;6.794;2022-10-22T06:19:30;13.43;;;5.43;;
8626;SDS011;4351;51.422;6.794;2022-10-22T06:21:58;8.53;;;5.10;;
8626;SDS011;4351;51.422;6.794;2022-10-22T06:24:28;10.90;;;5.67;;
8626;SDS011;4351;51.422;6.794;2022-10-22T06:26:56;11.33;;;5.30;;
8626;SDS011;4351;51.422;6.794;2022-10-22T06:29:25;8.60;;;5.27;;
8626;SDS011;4351;51.422;6.794;2022-10-22T06:31:53;10.30;;;5.20;;
8626;SDS011;4351;51.422;6.794;2022-10-22T06:34:21;11.23;;;5.23;;
8626;SDS011;4351;51.422;6.794;2022-10-22T06:36:51;6.20;;;4.83;;
8626;SDS011;4351;51.422;6.794;2022-10-22T06:39:23;11.50;;;5.33;;
8626;SDS011;4351;51.422;6.794;2022-10-22T06:42:07;10.80;;;4.93;;
8626;SDS011;4351;51.422;6.794;2022-10-22T06:44:39;9.10;;;5.63;;
8626;SDS011;4351;51.422;6.794;2022-10-22T06:47:07;11.40;;;5.40;;
8626;SDS011;4351;51.422;6.794;2022-10-22T06:49:35;8.40;;;4.73;;
8626;SDS011;4351;51.422;6.794;2022-10-22T06:52:03;11.93;;;5.27;;
8626;SDS011;4351;51.422;6.794;2022-10-22T06:54:31;8.10;;;4.77;;
8626;SDS011;4351;51.422;6.794;2022-10-22T06:56:59;10.37;;;5.50;;
8626;SDS011;4351;51.422;6.794;2022-10-22T06:59:27;7.50;;;4.93;;
8626;SDS011;4351;51.422;6.794;2022-10-22T07:01:57;8.23;;;5.20;;
8626;SDS011;4351;51.422;6.794;2022-10-22T07:04:25;8.33;;;5.03;;
8626;SDS011;4351;51.422;6.794;2022-10-22T07:06:53;7.00;;;4.83;;
8626;SDS011;4351;51.422;6.794;2022-10-22T07:09:21;8.13;;;5.00;;
8626;SDS011;4351;51.422;6.794;2022-10-22T07:11:49;12.30;;;4.90;;
8626;SDS011;4351;51.422;6.794;2022-10-22T07:14:17;8.37;;;4.80;;
8626;SDS011;4351;51.422;6.794;2022-10-22T07:16:45;10.47;;;4.93;;
8626;SDS011;4351;51.422;6.794;2022-10-22T07:19:15;7.17;;;4.37;;
8626;SDS011;4351;51.422;6.794;2022-10-22T07:21:42;10.57;;;5.23;;
8626;SDS011;4351;51.422;6.794;2022-10-22T07:24:11;8.83;;;4.63;;
8626;SDS011;4351;51.422;6.794;2022-10-22T07:26:39;9.53;;;4.67;;
8626;SDS011;4351;51.422;6.794;2022-10-22T07:29:07;10.97;;;4.37;;
8626;SDS011;4351;51.422;6.794;2022-10-22T07:31:35;8.70;;;4.30;;
8626;SDS011;4351;51.422;6.794;2022-10-22T07:34:03;8.70;;;4.87;;
8626;SDS011;4351;51.422;6.794;2022-10-22T07:36:32;9.50;;;4.60;;
8626;SDS011;4351;51.422;6.794;2022-10-22T07:39:00;7.00;;;4.37;;
8626;SDS011;4351;51.422;6.794;2022-10-22T07:41:28;9.67;;;4.33;;
8626;SDS011;4351;51.422;6.794;2022-10-22T07:43:57;12.47;;;4.77;;
8626;SDS011;4351;51.422;6.794;2022-10-22T07:46:25;11.30;;;4.50;;
8626;SDS011;4351;51.422;6.794;2022-10-22T07:48:53;7.47;;;4.20;;
8626;SDS011;4351;51.422;6.794;2022-10-22T07:51:22;7.23;;;4.00;;
8626;SDS011;4351;51.422;6.794;2022-10-22T07:53:51;8.63;;;3.70;;
8626;SDS011;4351;51.422;6.794;2022-10-22T07:56:19;9.50;;;3.73;;
8626;SDS011;4351;51.422;6.794;2022-10-22T07:58:47;7.43;;;3.50;;
8626;SDS011;4351;51.422;6.794;2022-10-22T08:01:15;8.53;;;3.87;;
8626;SDS011;4351;51.422;6.794;2022-10-22T08:03:43;8.97;;;3.67;;
8626;SDS011;4351;51.422;6.794;2022-10-22T08:06:12;7.83;;;3.90;;
8626;SDS011;4351;51.422;6.794;2022-10-22T08:08:41;12.53;;;4.00;;
8626;SDS011;4351;51.422;6.794;2022-10-22T08:11:12;6.37;;;3.47;;
8626;SDS011;4351;51.422;6.794;2022-10-22T08:13:40;12.13;;;4.23;;
8626;SDS011;4351;51.422;6.794;2022-10-22T08:16:11;10.17;;;4.07;;
8626;SDS011;4351;51.422;6.794;2022-10-22T08:18:40;10.13;;;3.77;;
8626;SDS011;4351;51.422;6.794;2022-10-22T08:21:08;11.77;;;3.40;;
8626;SDS011;4351;51.422;6.794;2022-10-22T08:23:36;9.20;;;3.43;;
8626;SDS011;4351;51.422;6.794;2022-10-22T08:26:05;7.27;;;3.27;;
8626;SDS011;4351;51.422;6.794;2022-10-22T08:28:34;8.30;;;3.00;;
8626;SDS011;4351;51.422;6.794;2022-10-22T08:31:03;10.83;;;2.90;;
8626;SDS011;4351;51.422;6.794;2022-10-22T08:33:33;6.90;;;2.63;;
8626;SDS011;4351;51.422;6.794;2022-10-22T08:36:01;6.97;;;2.60;;
8626;SDS011;4351;51.422;6.794;2022-10-22T08:38:29;9.43;;;2.90;;
8626;SDS011;4351;51.422;6.794;2022-10-22T08:40:59;5.83;;;2.70;;
8626;SDS011;4351;51.422;6.794;2022-10-22T08:43:52;5.80;;;2.30;;
8626;SDS011;4351;51.422;6.794;2022-10-22T08:46:38;10.00;;;2.60;;
8626;SDS011;4351;51.422;6.794;2022-10-22T08:49:19;8.03;;;2.43;;
8626;SDS011;4351;51.422;6.794;2022-10-22T08:51:49;9.70;;;2.50;;
8626;SDS011;4351;51.422;6.794;2022-10-22T08:54:31;8.60;;;2.40;;
8626;SDS011;4351;51.422;6.794;2022-10-22T08:57:11;7.03;;;2.60;;
8626;SDS011;4351;51.422;6.794;2022-10-22T08:59:52;7.90;;;2.30;;
8626;SDS011;4351;51.422;6.794;2022-10-22T09:02:29;8.43;;;2.50;;
8626;SDS011;4351;51.422;6.794;2022-10-22T09:05:12;10.07;;;2.63;;
8626;SDS011;4351;51.422;6.794;2022-10-22T09:07:49;10.10;;;2.40;;
8626;SDS011;4351;51.422;6.794;2022-10-22T09:10:18;6.37;;;2.40;;
8626;SDS011;4351;51.422;6.794;2022-10-22T09:12:51;5.43;;;2.50;;
8626;SDS011;4351;51.422;6.794;2022-10-22T09:15:21;8.13;;;2.40;;
8626;SDS011;4351;51.422;6.794;2022-10-22T09:17:51;7.10;;;1.93;;
8626;SDS011;4351;51.422;6.794;2022-10-22T09:20:31;6.60;;;2.20;;
8626;SDS011;4351;51.422;6.794;2022-10-22T09:23:11;16.77;;;2.67;;
8626;SDS011;4351;51.422;6.794;2022-10-22T09:25:50;7.60;;;2.33;;
8626;SDS011;4351;51.422;6.794;2022-10-22T09:28:18;18.57;;;2.60;;
8626;SDS011;4351;51.422;6.794;2022-10-22T09:30:48;12.33;;;2.27;;
8626;SDS011;4351;51.422;6.794;2022-10-22T09:33:17;7.13;;;2.10;;
8626;SDS011;4351;51.422;6.794;2022-10-22T09:35:50;11.33;;;2.20;;
8626;SDS011;4351;51.422;6.794;2022-10-22T09:38:22;7.47;;;2.20;;
8626;SDS011;4351;51.422;6.794;2022-10-22T09:40:53;8.83;;;2.40;;
8626;SDS011;4351;51.422;6.794;2022-10-22T09:43:22;9.07;;;2.10;;
8626;SDS011;4351;51.422;6.794;2022-10-22T09:45:55;7.83;;;1.87;;
8626;SDS011;4351;51.422;6.794;2022-10-22T09:48:27;10.07;;;1.93;;
8626;SDS011;4351;51.422;6.794;2022-10-22T09:50:58;4.87;;;1.77;;
8626;SDS011;4351;51.422;6.794;2022-10-22T09:53:34;6.87;;;1.70;;
8626;SDS011;4351;51.422;6.794;2022-10-22T09:56:06;6.80;;;1.57;;
8626;SDS011;4351;51.422;6.794;2022-10-22T09:58:42;8.80;;;2.30;;
8626;SDS011;4351;51.422;6.794;2022-10-22T10:01:16;11.07;;;1.70;;
8626;SDS011;4351;51.422;6.794;2022-10-22T10:03:46;6.90;;;1.70;;
8626;SDS011;4351;51.422;6.794;2022-10-22T10:06:17;6.80;;;1.73;;
8626;SDS011;4351;51.422;6.794;2022-10-22T10:08:45;5.80;;;1.50;;
8626;SDS011;4351;51.422;6.794;2022-10-22T10:11:16;8.27;;;1.93;;
8626;SDS011;4351;51.422;6.794;2022-10-22T10:13:58;6.77;;;1.57;;
8626;SDS011;4351;51.422;6.794;2022-10-22T10:16:41;7.60;;;1.80;;
8626;SDS011;4351;51.422;6.794;2022-10-22T10:19:29;6.77;;;1.60;;
8626;SDS011;4351;51.422;6.794;2022-10-22T10:22:12;8.97;;;1.70;;
8626;SDS011;4351;51.422;6.794;2022-10-22T10:24:56;4.10;;;1.60;;
8626;SDS011;4351;51.422;6.794;2022-10-22T10:27:40;6.97;;;2.40;;
8626;SDS011;4351;51.422;6.794;2022-10-22T10:30:10;8.33;;;2.00;;
8626;SDS011;4351;51.422;6.794;2022-10-22T10:32:49;9.23;;;2.03;;
8626;SDS011;4351;51.422;6.794;2022-10-22T10:35:26;7.10;;;1.70;;
8626;SDS011;4351;51.422;6.794;2022-10-22T10:38:01;5.10;;;1.73;;
8626;SDS011;4351;51.422;6.794;2022-10-22T10:40:43;8.33;;;1.70;;
8626;SDS011;4351;51.422;6.794;2022-10-22T10:43:18;7.10;;;1.60;;
8626;SDS011;4351;51.422;6.794;2022-10-22T10:45:54;6.97;;;1.57;;
8626;SDS011;4351;51.422;6.794;2022-10-22T10:48:35;8.97;;;1.60;;
8626;SDS011;4351;51.422;6.794;2022-10-22T10:51:17;7.23;;;1.30;;
8626;SDS011;4351;51.422;6.794;2022-10-22T10:54:03;6.73;;;1.60;;
8626;SDS011;4351;51.422;6.794;2022-10-22T10:56:43;6.93;;;1.60;;
8626;SDS011;4351;51.422;6.794;2022-10-22T10:59:15;7.07;;;1.30;;
8626;SDS011;4351;51.422;6.794;2022-10-22T11:01:50;7.37;;;1.70;;
8626;SDS011;4351;51.422;6.794;2022-10-22T11:04:37;7.73;;;1.73;;
8626;SDS011;4351;51.422;6.794;2022-10-22T11:07:16;5.97;;;1.50;;
8626;SDS011;4351;51.422;6.794;2022-10-22T11:10:02;7.00;;;1.57;;
8626;SDS011;4351;51.422;6.794;2022-10-22T11:12:37;7.17;;;1.30;;
8626;SDS011;4351;51.422;6.794;2022-10-22T11:15:11;5.73;;;1.50;;
8626;SDS011;4351;51.422;6.794;2022-10-22T11:17:49;5.30;;;1.53;;
8626;SDS011;4351;51.422;6.794;2022-10-22T11:20:21;6.60;;;1.27;;
8626;SDS011;4351;51.422;6.794;2022-10-22T11:22:54;6.97;;;1.80;;
8626;SDS011;4351;51.422;6.794;2022-10-22T11:25:46;4.17;;;1.33;;
8626;SDS011;4351;51.422;6.794;2022-10-22T11:28:16;4.83;;;1.30;;
8626;SDS011;4351;51.422;6.794;2022-10-22T11:30:52;10.47;;;1.70;;
8626;SDS011;4351;51.422;6.794;2022-10-22T11:33:26;5.37;;;1.77;;
8626;SDS011;4351;51.422;6.794;2022-10-22T11:36:00;6.50;;;1.57;;
8626;SDS011;4351;51.422;6.794;2022-10-22T11:38:30;5.30;;;1.40;;
8626;SDS011;4351;51.422;6.794;2022-10-22T11:41:02;4.77;;;1.40;;
8626;SDS011;4351;51.422;6.794;2022-10-22T11:43:33;7.63;;;1.40;;
8626;SDS011;4351;51.422;6.794;2022-10-22T11:46:34;6.27;;;1.50;;
8626;SDS011;4351;51.422;6.794;2022-10-22T11:49:16;5.60;;;1.30;;
8626;SDS011;4351;51.422;6.794;2022-10-22T11:51:50;6.03;;;1.30;;
8626;SDS011;4351;51.422;6.794;2022-10-22T11:54:28;3.90;;;1.23;;
8626;SDS011;4351;51.422;6.794;2022-10-22T11:57:17;4.80;;;1.37;;
8626;SDS011;4351;51.422;6.794;2022-10-22T11:59:52;3.80;;;0.97;;
8626;SDS011;4351;51.422;6.794;2022-10-22T12:02:24;4.90;;;1.17;;
8626;SDS011;4351;51.422;6.794;2022-10-22T12:08:23;6.53;;;1.63;;
8626;SDS011;4351;51.422;6.794;2022-10-22T12:11:01;5.00;;;1.67;;
8626;SDS011;4351;51.422;6.794;2022-10-22T12:13:33;8.43;;;1.60;;
8626;SDS011;4351;51.422;6.794;2022-10-22T12:16:24;4.90;;;1.30;;
8626;SDS011;4351;51.422;6.794;2022-10-22T12:19:14;8.10;;;1.43;;
8626;SDS011;4351;51.422;6.794;2022-10-22T12:21:46;7.27;;;1.30;;
8626;SDS011;4351;51.422;6.794;2022-10-22T12:24:18;4.73;;;1.67;;
8626;SDS011;4351;51.422;6.794;2022-10-22T12:26:48;6.27;;;1.80;;
8626;SDS011;4351;51.422;6.794;2022-10-22T12:29:19;6.67;;;2.03;;
8626;SDS011;4351;51.422;6.794;2022-10-22T12:31:49;9.97;;;1.77;;
8626;SDS011;4351;51.422;6.794;2022-10-22T12:34:19;11.90;;;4.03;;
8626;SDS011;4351;51.422;6.794;2022-10-22T12:36:50;5.07;;;1.43;;
8626;SDS011;4351;51.422;6.794;2022-10-22T12:39:20;6.00;;;1.63;;
8626;SDS011;4351;51.422;6.794;2022-10-22T12:41:51;5.30;;;1.63;;
8626;SDS011;4351;51.422;6.794;2022-10-22T12:44:20;5.63;;;1.80;;
8626;SDS011;4351;51.422;6.794;2022-10-22T12:46:48;8.97;;;2.60;;
8626;SDS011;4351;51.422;6.794;2022-10-22T12:49:23;11.07;;;2.80;;
8626;SDS011;4351;51.422;6.794;2022-10-22T12:51:59;9.07;;;3.37;;
8626;SDS011;4351;51.422;6.794;2022-10-22T12:54:31;10.30;;;3.30;;
8626;SDS011;4351;51.422;6.794;2022-10-22T12:57:00;8.20;;;1.87;;
8626;SDS011;4351;51.422;6.794;2022-10-22T12:59:29;14.40;;;3.60;;
8626;SDS011;4351;51.422;6.794;2022-10-22T13:02:01;5.87;;;1.40;;
8626;SDS011;4351;51.422;6.794;2022-10-22T13:04:37;4.73;;;1.60;;
8626;SDS011;4351;51.422;6.794;2022-10-22T13:07:13;3.03;;;1.00;;
8626;SDS011;4351;51.422;6.794;2022-10-22T13:09:56;6.43;;;1.50;;
8626;SDS011;4351;51.422;6.794;2022-10-22T13:12:26;3.97;;;1.20;;
8626;SDS011;4351;51.422;6.794;2022-10-22T13:17:45;4.47;;;1.20;;
8626;SDS011;4351;51.422;6.794;2022-10-22T13:20:16;7.80;;;1.30;;
8626;SDS011;4351;51.422;6.794;2022-10-22T13:22:53;5.53;;;1.47;;
8626;SDS011;4351;51.422;6.794;2022-10-22T13:25:25;6.33;;;1.27;;
8626;SDS011;4351;51.422;6.794;2022-10-22T13:27:55;5.27;;;1.40;;
8626;SDS011;4351;51.422;6.794;2022-10-22T13:30:25;6.33;;;1.00;;
8626;SDS011;4351;51.422;6.794;2022-10-22T13:32:55;5.60;;;1.20;;
8626;SDS011;4351;51.422;6.794;2022-10-22T13:35:26;4.07;;;1.03;;
8626;SDS011;4351;51.422;6.794;2022-10-22T13:37:57;8.83;;;2.90;;
8626;SDS011;4351;51.422;6.794;2022-10-22T13:40:27;4.73;;;1.50;;
8626;SDS011;4351;51.422;6.794;2022-10-22T13:42:55;6.87;;;1.33;;
8626;SDS011;4351;51.422;6.794;2022-10-22T13:45:23;5.83;;;1.10;;
8626;SDS011;4351;51.422;6.794;2022-10-22T13:47:52;4.77;;;1.43;;
8626;SDS011;4351;51.422;6.794;2022-10-22T13:50:22;6.70;;;1.40;;
8626;SDS011;4351;51.422;6.794;2022-10-22T13:52:50;3.97;;;1.20;;
8626;SDS011;4351;51.422;6.794;2022-10-22T13:55:21;4.10;;;1.07;;
8626;SDS011;4351;51.422;6.794;2022-10-22T13:57:53;5.93;;;1.33;;
8626;SDS011;4351;51.422;6.794;2022-10-22T14:00:22;4.53;;;1.17;;
8626;SDS011;4351;51.422;6.794;2022-10-22T14:02:52;5.90;;;1.20;;
8626;SDS011;4351;51.422;6.794;2022-10-22T14:05:23;5.10;;;1.47;;
8626;SDS011;4351;51.422;6.794;2022-10-22T14:07:51;4.67;;;1.30;;
8626;SDS011;4351;51.422;6.794;2022-10-22T14:10:20;6.13;;;1.00;;
8626;SDS011;4351;51.422;6.794;2022-10-22T14:12:49;8.63;;;1.37;;
8626;SDS011;4351;51.422;6.794;2022-10-22T14:15:21;3.67;;;1.00;;
8626;SDS011;4351;51.422;6.794;2022-10-22T14:17:51;7.07;;;1.50;;
8626;SDS011;4351;51.422;6.794;2022-10-22T14:20:23;6.63;;;1.40;;
8626;SDS011;4351;51.422;6.794;2022-10-22T14:22:54;4.20;;;1.30;;
8626;SDS011;4351;51.422;6.794;2022-10-22T14:25:23;5.43;;;1.50;;
8626;SDS011;4351;51.422;6.794;2022-10-22T14:27:52;4.37;;;1.27;;
8626;SDS011;4351;51.422;6.794;2022-10-22T14:30:24;5.60;;;1.40;;
8626;SDS011;4351;51.422;6.794;2022-10-22T14:32:55;11.17;;;1.83;;
8626;SDS011;4351;51.422;6.794;2022-10-22T14:35:27;5.03;;;1.33;;
8626;SDS011;4351;51.422;6.794;2022-10-22T14:37:55;4.20;;;1.40;;
8626;SDS011;4351;51.422;6.794;2022-10-22T14:40:24;3.00;;;1.10;;
8626;SDS011;4351;51.422;6.794;2022-10-22T14:42:52;4.03;;;1.13;;
8626;SDS011;4351;51.422;6.794;2022-10-22T14:45:21;3.20;;;1.30;;
8626;SDS011;4351;51.422;6.794;2022-10-22T14:47:54;3.80;;;1.20;;
8626;SDS011;4351;51.422;6.794;2022-10-22T14:50:25;5.13;;;1.30;;
8626;SDS011;4351;51.422;6.794;2022-10-22T14:52:54;7.83;;;1.40;;
8626;SDS011;4351;51.422;6.794;2022-10-22T14:55:25;7.70;;;1.83;;
8626;SDS011;4351;51.422;6.794;2022-10-22T14:57:54;5.27;;;1.20;;
8626;SDS011;4351;51.422;6.794;2022-10-22T15:00:24;8.97;;;1.33;;
8626;SDS011;4351;51.422;6.794;2022-10-22T15:02:52;4.80;;;1.30;;
8626;SDS011;4351;51.422;6.794;2022-10-22T15:05:32;8.43;;;1.70;;
8626;SDS011;4351;51.422;6.794;2022-10-22T15:08:01;7.00;;;1.70;;
8626;SDS011;4351;51.422;6.794;2022-10-22T15:10:30;6.50;;;1.30;;
8626;SDS011;4351;51.422;6.794;2022-10-22T15:12:58;5.43;;;1.20;;
8626;SDS011;4351;51.422;6.794;2022-10-22T15:15:27;6.27;;;1.63;;
8626;SDS011;4351;51.422;6.794;2022-10-22T15:18:03;3.67;;;1.40;;
8626;SDS011;4351;51.422;6.794;2022-10-22T15:20:33;3.33;;;1.20;;
8626;SDS011;4351;51.422;6.794;2022-10-22T15:23:01;3.93;;;1.10;;
8626;SDS011;4351;51.422;6.794;2022-10-22T15:25:30;5.93;;;1.40;;
8626;SDS011;4351;51.422;6.794;2022-10-22T15:27:58;3.27;;;1.30;;
8626;SDS011;4351;51.422;6.794;2022-10-22T15:30:36;4.53;;;1.10;;
8626;SDS011;4351;51.422;6.794;2022-10-22T15:33:04;6.90;;;1.37;;
8626;SDS011;4351;51.422;6.794;2022-10-22T15:35:32;6.27;;;1.60;;
8626;SDS011;4351;51.422;6.794;2022-10-22T15:38:00;4.53;;;1.60;;
8626;SDS011;4351;51.422;6.794;2022-10-22T15:40:34;5.70;;;2.20;;
8626;SDS011;4351;51.422;6.794;2022-10-22T15:43:04;8.63;;;2.60;;
8626;SDS011;4351;51.422;6.794;2022-10-22T15:45:32;11.03;;;2.03;;
8626;SDS011;4351;51.422;6.794;2022-10-22T15:48:01;7.53;;;1.93;;
8626;SDS011;4351;51.422;6.794;2022-10-22T15:50:29;7.57;;;2.40;;